createdAt,value
2022-11-05T00:01:31.363Z,21.10
2022-11-05T00:04:26.815Z,14.67
2022-11-05T00:08:18.492Z,12.43
2022-11-05T00:10:46.897Z,14.83
2022-11-05T00:14:00.535Z,14.63
2022-11-05T00:17:03.616Z,13.53
2022-11-05T00:19:59.026Z,13.97
2022-11-05T00:22:49.840Z,13.33
2022-11-05T00:25:43.410Z,14.03
2022-11-05T00:28:11.922Z,17.13
2022-11-05T00:30:48.488Z,14.37
2022-11-05T00:33:17.361Z,14.10
2022-11-05T00:35:51.216Z,15.00
2022-11-05T00:38:25.243Z,14.60
2022-11-05T00:40:54.003Z,15.77
2022-11-05T00:43:39.420Z,15.97
2022-11-05T00:46:08.288Z,14.77
2022-11-05T00:49:03.453Z,14.27
2022-11-05T00:51:32.991Z,17.03
2022-11-05T00:54:01.944Z,16.23
2022-11-05T00:56:32.680Z,15.90
2022-11-05T00:59:01.912Z,16.67
2022-11-05T01:02:43.779Z,15.60
2022-11-05T01:28:19.029Z,19.73
2022-11-05T01:30:56.937Z,32.50
2022-11-05T01:33:53.263Z,19.70
2022-11-05T01:36:25.012Z,16.47
2022-11-05T01:38:53.110Z,13.17
2022-11-05T01:41:21.959Z,19.63
2022-11-05T01:43:54.580Z,18.50
2022-11-05T01:46:42.048Z,15.10
2022-11-05T01:49:44.227Z,16.93
2022-11-05T01:52:13.958Z,15.17
2022-11-05T01:55:08.364Z,17.00
2022-11-05T01:58:03.628Z,15.83
2022-11-05T02:00:37.843Z,16.97
2022-11-05T02:03:10.339Z,15.77
2022-11-05T02:05:47.700Z,16.90
2022-11-05T02:08:50.659Z,13.03
2022-11-05T02:11:21.013Z,16.03
2022-11-05T02:13:54.293Z,14.10
2022-11-05T02:16:46.739Z,16.00
2022-11-05T02:20:01.365Z,15.07
2022-11-05T02:23:06.970Z,15.30
2022-11-05T02:26:22.535Z,17.23
2022-11-05T02:38:17.868Z,29.03
2022-11-05T02:41:19.474Z,21.67
2022-11-05T02:52:03.827Z,14.60
2022-11-05T03:01:12.555Z,25.83
2022-11-05T03:04:13.628Z,27.50
2022-11-05T03:07:01.005Z,22.07
2022-11-05T03:10:09.872Z,18.77
2022-11-05T03:12:53.209Z,18.03
2022-11-05T03:15:58.776Z,15.20
2022-11-05T03:18:39.284Z,15.03
2022-11-05T03:22:24.494Z,17.00
2022-11-05T03:25:11.739Z,17.40
2022-11-05T03:27:44.270Z,17.03
2022-11-05T03:30:14.811Z,17.63
2022-11-05T03:32:50.998Z,16.37
2022-11-05T03:35:24.486Z,16.70
2022-11-05T03:37:58.865Z,17.50
2022-11-05T03:40:34.097Z,19.30
2022-11-05T03:43:04.883Z,15.33
2022-11-05T03:45:38.721Z,15.33
2022-11-05T03:48:52.160Z,16.90
2022-11-05T03:51:52.730Z,19.60
2022-11-05T03:54:53.713Z,18.40
2022-11-05T03:57:27.227Z,18.13
2022-11-05T03:59:57.429Z,20.37
2022-11-05T04:02:27.831Z,16.90
2022-11-05T04:04:56.636Z,17.27
2022-11-05T04:07:49.530Z,15.37
2022-11-05T04:10:38.393Z,17.77
2022-11-05T04:13:27.672Z,17.47
2022-11-05T04:16:21.019Z,16.60
2022-11-05T04:18:53.067Z,19.57
2022-11-05T04:21:43.908Z,18.13
2022-11-05T04:24:14.875Z,14.90
2022-11-05T04:27:09.755Z,16.73
2022-11-05T04:30:02.451Z,17.97
2022-11-05T04:32:30.620Z,19.03
2022-11-05T04:35:00.163Z,17.10
2022-11-05T04:37:28.876Z,18.97
2022-11-05T04:40:49.891Z,24.13
2022-11-05T04:43:20.229Z,18.83
2022-11-05T04:45:53.135Z,16.73
2022-11-05T04:51:54.237Z,17.10
2022-11-05T04:55:37.735Z,20.53
2022-11-05T04:58:29.399Z,22.87
2022-11-05T05:01:04.482Z,18.07
2022-11-05T05:03:35.999Z,24.33
2022-11-05T05:06:07.519Z,22.23
2022-11-05T05:08:35.919Z,20.53
2022-11-05T05:11:21.414Z,25.87
2022-11-05T05:14:38.639Z,19.47
2022-11-05T05:17:09.897Z,18.33
2022-11-05T05:19:53.055Z,19.13
2022-11-05T05:22:26.184Z,21.67
2022-11-05T05:24:56.839Z,20.17
2022-11-05T05:27:29.299Z,20.83
2022-11-05T05:30:01.650Z,25.07
2022-11-05T05:32:34.671Z,20.80
2022-11-05T05:35:17.278Z,20.00
2022-11-05T05:37:47.145Z,19.03
2022-11-05T05:40:15.347Z,22.07
2022-11-05T05:42:43.794Z,23.10
2022-11-05T05:45:13.313Z,20.97
2022-11-05T05:47:43.155Z,21.70
2022-11-05T05:50:11.614Z,19.83
2022-11-05T05:52:40.057Z,21.97
2022-11-05T05:55:35.501Z,19.97
2022-11-05T05:58:10.184Z,21.00
2022-11-05T06:00:38.663Z,18.77
2022-11-05T06:03:09.481Z,19.83
2022-11-05T06:05:48.294Z,20.60
2022-11-05T06:08:17.065Z,23.57
2022-11-05T06:11:10.709Z,21.07
2022-11-05T06:13:39.308Z,23.77
2022-11-05T06:16:46.740Z,19.43
2022-11-05T06:19:24.106Z,26.87
2022-11-05T06:21:59.189Z,20.60
2022-11-05T06:24:28.931Z,18.83
2022-11-05T06:26:59.911Z,23.30
2022-11-05T06:29:28.110Z,22.00
2022-11-05T06:31:57.049Z,20.40
2022-11-05T06:34:26.910Z,20.80
2022-11-05T06:36:56.072Z,22.00
2022-11-05T06:39:25.673Z,20.00
2022-11-05T06:42:17.053Z,21.87
2022-11-05T06:44:44.574Z,26.00
2022-11-05T06:47:13.139Z,21.70
2022-11-05T06:49:43.097Z,23.77
2022-11-05T06:52:11.342Z,22.83
2022-11-05T06:54:40.157Z,22.83
2022-11-05T06:57:15.225Z,24.07
2022-11-05T06:59:46.742Z,28.77
2022-11-05T07:02:18.651Z,24.57
2022-11-05T07:04:49.918Z,24.90
2022-11-05T07:07:18.186Z,24.57
2022-11-05T07:09:47.449Z,23.70
2022-11-05T07:12:16.107Z,29.03
2022-11-05T07:21:12.861Z,24.53
2022-11-05T07:23:46.937Z,29.33
2022-11-05T07:26:19.497Z,23.17
2022-11-05T07:28:47.677Z,25.77
2022-11-05T07:31:15.945Z,30.03
2022-11-05T07:33:44.161Z,21.87
2022-11-05T07:36:42.473Z,33.10
2022-11-05T07:43:15.252Z,23.20
2022-11-05T07:45:51.447Z,21.63
2022-11-05T07:48:27.614Z,21.97
2022-11-05T07:51:02.355Z,24.20
2022-11-05T07:53:31.863Z,19.90
2022-11-05T07:56:01.117Z,20.90
2022-11-05T07:58:29.359Z,25.63
2022-11-05T08:00:59.449Z,24.37
2022-11-05T08:04:42.789Z,24.30
2022-11-05T08:08:15.003Z,24.80
2022-11-05T08:15:16.354Z,25.03
2022-11-05T08:17:46.843Z,26.30
2022-11-05T08:20:16.965Z,23.27
2022-11-05T08:22:46.011Z,24.43
2022-11-05T08:25:18.285Z,24.80
2022-11-05T08:27:46.852Z,24.13
2022-11-05T08:30:16.465Z,21.90
2022-11-05T08:32:46.915Z,36.17
2022-11-05T08:35:15.136Z,25.63
2022-11-05T08:37:44.586Z,23.70
2022-11-05T08:40:13.521Z,25.23
2022-11-05T08:42:42.501Z,22.80
2022-11-05T08:45:11.291Z,22.40
2022-11-05T08:47:40.841Z,24.83
2022-11-05T08:50:12.477Z,22.30
2022-11-05T08:52:42.009Z,25.23
2022-11-05T08:55:11.021Z,27.37
2022-11-05T08:57:58.350Z,24.67
2022-11-05T09:00:28.507Z,24.20
2022-11-05T09:02:59.959Z,25.83
2022-11-05T09:05:29.126Z,23.80
2022-11-05T09:08:08.281Z,27.40
2022-11-05T09:10:38.271Z,24.53
2022-11-05T09:13:06.542Z,24.50
2022-11-05T09:15:36.818Z,23.93
2022-11-05T09:18:16.018Z,33.20
2022-11-05T09:20:45.202Z,29.47
2022-11-05T09:23:15.554Z,26.67
2022-11-05T09:30:54.548Z,27.70
2022-11-05T09:33:26.720Z,25.83
2022-11-05T09:36:19.432Z,23.77
2022-11-05T09:39:11.722Z,22.63
2022-11-05T09:41:46.886Z,28.00
2022-11-05T09:44:49.757Z,25.97
2022-11-05T09:47:45.476Z,28.53
2022-11-05T09:50:21.070Z,23.93
2022-11-05T09:52:49.809Z,25.10
2022-11-05T09:55:39.547Z,28.90
2022-11-05T09:58:18.766Z,27.90
2022-11-05T10:00:53.401Z,27.93
2022-11-05T10:03:24.025Z,23.63
2022-11-05T10:05:59.187Z,25.57
2022-11-05T10:08:32.041Z,23.30
2022-11-05T10:11:05.803Z,27.13
2022-11-05T10:13:41.995Z,27.17
2022-11-05T10:16:21.208Z,27.37
2022-11-05T10:18:55.050Z,28.73
2022-11-05T10:21:59.679Z,26.20
2022-11-05T10:24:21.752Z,29.43
2022-11-05T10:26:53.193Z,26.50
2022-11-05T10:29:29.450Z,25.47
2022-11-05T10:32:00.022Z,23.90
2022-11-05T10:34:40.173Z,27.13
2022-11-05T10:37:12.028Z,26.63
2022-11-05T10:39:43.584Z,28.10
2022-11-05T10:46:28.719Z,24.53
2022-11-05T10:49:08.879Z,30.60
2022-11-05T10:51:45.385Z,28.73
2022-11-05T10:54:20.345Z,31.63
2022-11-05T10:56:48.752Z,29.07
2022-11-05T10:59:25.063Z,30.40
2022-11-05T11:02:02.699Z,29.50
2022-11-05T11:04:37.536Z,26.77
2022-11-05T11:07:06.317Z,26.80
2022-11-05T11:09:39.479Z,30.07
2022-11-05T11:12:21.654Z,29.17
2022-11-05T11:15:02.208Z,31.70
2022-11-05T11:17:32.447Z,30.43
2022-11-05T11:20:22.608Z,29.57
2022-11-05T11:23:13.101Z,36.23
2022-11-05T11:25:48.933Z,36.63
2022-11-05T11:28:23.860Z,31.00
2022-11-05T11:30:56.030Z,28.87
2022-11-05T11:33:29.328Z,31.47
2022-11-05T11:36:02.564Z,34.80
2022-11-05T11:38:32.774Z,30.77
2022-11-05T11:41:14.974Z,33.70
2022-11-05T11:43:45.007Z,28.93
2022-11-05T11:46:17.661Z,35.10
2022-11-05T11:48:47.986Z,33.57
2022-11-05T11:51:30.701Z,33.50
2022-11-05T11:54:00.431Z,31.07
2022-11-05T11:56:34.505Z,29.50
2022-11-05T11:59:10.929Z,65.37
2022-11-05T12:02:20.292Z,59.07
2022-11-05T12:08:38.249Z,35.77
2022-11-05T12:11:16.644Z,34.43
2022-11-05T12:14:00.587Z,32.60
2022-11-05T12:17:03.304Z,30.47
2022-11-05T12:19:54.007Z,32.30
2022-11-05T12:22:32.296Z,32.77
2022-11-05T12:25:20.018Z,33.53
2022-11-05T12:28:04.737Z,34.30
2022-11-05T12:30:43.980Z,67.43
2022-11-05T12:33:43.698Z,40.33
2022-11-05T12:36:26.946Z,35.07
2022-11-05T12:39:09.767Z,31.80
2022-11-05T12:41:48.293Z,34.93
2022-11-05T12:44:27.889Z,35.20
2022-11-05T12:47:12.068Z,32.53
2022-11-05T12:49:57.714Z,35.30
2022-11-05T12:52:46.238Z,41.73
2022-11-05T12:55:18.955Z,37.50
2022-11-05T12:57:54.538Z,37.03
2022-11-05T13:00:24.373Z,36.43
2022-11-05T13:03:43.535Z,41.13
2022-11-05T13:06:19.838Z,37.63
2022-11-05T13:08:52.565Z,36.27
2022-11-05T13:11:27.656Z,36.80
2022-11-05T13:14:06.112Z,37.03
2022-11-05T13:16:37.278Z,37.27
2022-11-05T13:19:15.403Z,38.70
2022-11-05T13:21:50.244Z,38.83
2022-11-05T13:24:22.316Z,34.27
2022-11-05T13:26:57.264Z,35.57
2022-11-05T13:29:30.438Z,36.43
2022-11-05T13:32:03.265Z,49.60
2022-11-05T13:34:37.433Z,42.63
2022-11-05T13:37:53.167Z,41.33
2022-11-05T13:41:01.330Z,39.43
2022-11-05T13:44:02.062Z,41.50
2022-11-05T13:46:47.316Z,39.87
2022-11-05T13:50:07.829Z,40.90
2022-11-05T13:56:31.822Z,37.87
2022-11-05T14:00:06.863Z,35.23
2022-11-05T14:03:04.042Z,37.30
2022-11-05T14:05:38.516Z,38.07
2022-11-05T14:11:40.852Z,39.17
2022-11-05T14:14:27.569Z,38.13
2022-11-05T14:25:08.709Z,37.87
2022-11-05T14:27:50.743Z,40.27
2022-11-05T14:30:45.222Z,42.70
2022-11-05T14:37:27.502Z,34.08
2022-11-05T14:40:04.823Z,39.93
2022-11-05T14:42:34.430Z,41.83
2022-11-05T14:45:22.941Z,44.37
2022-11-05T14:51:15.162Z,42.07
2022-11-05T14:53:46.576Z,48.43
2022-11-05T14:56:20.402Z,48.00
2022-11-05T15:01:57.356Z,49.43
2022-11-05T15:04:28.942Z,50.40
2022-11-05T15:07:30.180Z,52.17
2022-11-05T15:10:09.919Z,50.20
2022-11-05T15:12:46.673Z,49.73
2022-11-05T15:15:23.686Z,47.83
2022-11-05T15:18:02.238Z,48.73
2022-11-05T15:20:40.191Z,46.63
2022-11-05T15:23:13.103Z,40.90
2022-11-05T15:25:53.374Z,40.77
2022-11-05T15:28:28.510Z,37.40
2022-11-05T15:30:59.043Z,34.27
2022-11-05T15:33:27.541Z,34.83
2022-11-05T15:35:56.389Z,31.33
2022-11-05T15:38:30.453Z,31.87
2022-11-05T15:41:06.315Z,28.73
2022-11-05T15:43:34.951Z,28.23
2022-11-05T15:46:06.454Z,26.63
2022-11-05T15:48:39.015Z,28.97
2022-11-05T15:51:07.467Z,25.93
2022-11-05T15:56:38.732Z,38.13
2022-11-05T15:59:13.826Z,46.93
2022-11-05T16:01:52.326Z,27.23
2022-11-05T16:04:23.527Z,26.83
2022-11-05T16:06:54.913Z,24.00
2022-11-05T16:09:28.298Z,24.03
2022-11-05T16:12:28.510Z,23.97
2022-11-05T16:15:03.880Z,25.30
2022-11-05T16:17:35.223Z,25.90
2022-11-05T16:20:07.251Z,26.33
2022-11-05T16:22:48.656Z,25.50
2022-11-05T16:25:29.150Z,23.80
2022-11-05T16:27:59.839Z,27.27
2022-11-05T16:30:29.165Z,24.53
2022-11-05T16:33:05.970Z,24.73
2022-11-05T16:35:34.473Z,26.53
2022-11-05T16:38:04.024Z,26.10
2022-11-05T16:40:39.210Z,26.47
2022-11-05T16:46:38.511Z,29.00
2022-11-05T16:49:15.864Z,30.43
2022-11-05T16:51:45.692Z,29.57
2022-11-05T16:54:13.966Z,29.67
2022-11-05T16:56:47.489Z,28.70
2022-11-05T16:59:19.829Z,27.53
2022-11-05T17:01:52.967Z,27.93
2022-11-05T17:04:34.454Z,27.73
2022-11-05T17:07:02.802Z,28.50
2022-11-05T17:09:31.867Z,27.63
2022-11-05T17:12:03.337Z,30.60
2022-11-05T17:14:35.437Z,30.47
2022-11-05T17:17:05.106Z,29.17
2022-11-05T17:19:39.419Z,38.80
2022-11-05T17:22:08.613Z,40.93
2022-11-05T17:24:39.388Z,32.27
2022-11-05T17:27:07.814Z,30.07
2022-11-05T17:29:40.050Z,37.77
2022-11-05T17:32:10.601Z,37.83
2022-11-05T17:34:40.400Z,38.63
2022-11-05T17:37:09.629Z,37.57
2022-11-05T17:39:37.794Z,35.33
2022-11-05T17:42:09.450Z,37.43
2022-11-05T17:44:39.693Z,37.77
2022-11-05T17:47:07.997Z,38.97
2022-11-05T17:49:39.498Z,42.07
2022-11-05T17:52:11.772Z,39.43
2022-11-05T17:54:39.944Z,41.67
2022-11-05T17:57:08.185Z,41.93
2022-11-05T17:59:36.490Z,39.73
2022-11-05T18:02:06.166Z,44.80
2022-11-05T18:04:42.702Z,39.60
2022-11-05T18:07:11.002Z,43.10
2022-11-05T18:09:39.351Z,44.53
2022-11-05T18:12:08.249Z,42.30
2022-11-05T18:14:39.085Z,43.87
2022-11-05T18:17:08.860Z,47.53
2022-11-05T18:19:38.278Z,41.00
2022-11-05T18:22:06.474Z,39.20
2022-11-05T18:24:35.015Z,45.63
2022-11-05T18:27:03.157Z,42.07
2022-11-05T18:30:08.062Z,40.57
2022-11-05T18:32:48.090Z,37.80
2022-11-05T18:35:16.355Z,40.13
2022-11-05T18:37:45.617Z,38.73
2022-11-05T18:40:14.625Z,36.33
2022-11-05T18:42:43.129Z,33.83
2022-11-05T18:45:12.608Z,36.10
2022-11-05T18:47:42.270Z,32.60
2022-11-05T18:50:11.141Z,30.60
2022-11-05T18:52:39.491Z,26.70
2022-11-05T18:55:08.949Z,29.60
2022-11-05T18:57:37.168Z,25.93
2022-11-05T19:00:07.639Z,22.27
2022-11-05T19:02:35.983Z,20.33
2022-11-05T19:05:28.120Z,21.30
2022-11-05T19:07:58.201Z,17.87
2022-11-05T19:10:27.111Z,20.33
2022-11-05T19:12:55.489Z,16.47
2022-11-05T19:15:23.808Z,18.87
2022-11-05T19:17:52.153Z,17.20
2022-11-05T19:20:46.110Z,15.70
2022-11-05T19:23:44.137Z,14.83
2022-11-05T19:26:18.123Z,14.03
2022-11-05T19:28:49.096Z,17.53
2022-11-05T19:31:20.330Z,13.73
2022-11-05T19:33:50.736Z,17.97
2022-11-05T19:36:21.727Z,16.97
2022-11-05T19:38:50.632Z,13.50
2022-11-05T19:41:19.484Z,12.47
2022-11-05T19:43:52.463Z,13.00
2022-11-05T19:46:28.114Z,13.60
2022-11-05T19:49:00.832Z,12.07
2022-11-05T19:51:45.999Z,16.63
2022-11-05T19:54:14.226Z,12.03
2022-11-05T19:57:08.127Z,12.20
2022-11-05T19:59:36.668Z,15.50
2022-11-05T20:02:16.228Z,12.87
2022-11-05T20:04:45.335Z,14.33
2022-11-05T20:07:14.881Z,17.90
2022-11-05T20:09:43.333Z,18.07
2022-11-05T20:12:22.221Z,15.47
2022-11-05T20:14:50.558Z,23.27
2022-11-05T20:17:20.348Z,13.43
2022-11-05T20:19:52.507Z,15.80
2022-11-05T20:22:22.274Z,16.93
2022-11-05T20:24:50.594Z,15.60
2022-11-05T20:27:18.954Z,16.67
2022-11-05T20:29:47.699Z,15.20
2022-11-05T20:32:15.935Z,18.17
2022-11-05T20:34:44.622Z,18.63
2022-11-05T20:37:14.108Z,16.27
2022-11-05T20:39:46.392Z,18.23
2022-11-05T20:42:14.862Z,18.37
2022-11-05T20:44:43.232Z,20.10
2022-11-05T20:47:11.601Z,15.97
2022-11-05T20:49:42.868Z,21.53
2022-11-05T20:52:12.504Z,23.50
2022-11-05T20:54:40.758Z,15.90
2022-11-05T20:57:10.310Z,23.03
2022-11-05T20:59:40.653Z,20.87
2022-11-05T21:02:12.012Z,21.77
2022-11-05T21:04:40.842Z,20.37
2022-11-05T21:07:09.160Z,20.67
2022-11-05T21:09:41.539Z,21.77
2022-11-05T21:12:14.019Z,18.17
2022-11-05T21:14:44.504Z,20.57
2022-11-05T21:17:13.737Z,22.00
2022-11-05T21:20:06.021Z,26.07
2022-11-05T21:22:59.351Z,20.57
2022-11-05T21:25:28.478Z,23.33
2022-11-05T21:27:59.743Z,24.80
2022-11-05T21:30:30.161Z,22.03
2022-11-05T21:33:02.538Z,27.73
2022-11-05T21:35:33.701Z,28.93
2022-11-05T21:38:02.537Z,26.10
2022-11-05T21:40:31.048Z,24.10
2022-11-05T21:43:02.530Z,31.23
2022-11-05T21:45:31.039Z,25.17
2022-11-05T21:47:59.488Z,27.53
2022-11-05T21:50:43.217Z,25.70
2022-11-05T21:53:32.677Z,32.17
2022-11-05T21:56:19.629Z,27.20
2022-11-05T21:59:07.590Z,26.80
2022-11-05T22:05:20.117Z,25.97
2022-11-05T22:07:48.845Z,24.40
2022-11-05T22:10:20.242Z,25.83
2022-11-05T22:12:55.011Z,28.80
2022-11-05T22:15:24.816Z,22.07
2022-11-05T22:17:54.075Z,24.93
2022-11-05T22:20:23.079Z,24.80
2022-11-05T22:22:51.642Z,28.67
2022-11-05T22:25:22.864Z,24.07
2022-11-05T22:27:51.603Z,26.00
2022-11-05T22:30:20.846Z,25.63
2022-11-05T22:32:52.807Z,22.50
2022-11-05T22:35:24.579Z,24.43
2022-11-05T22:37:54.089Z,24.23
2022-11-05T22:40:27.616Z,20.57
2022-11-05T22:43:00.679Z,26.10
2022-11-05T22:45:29.032Z,24.33
2022-11-05T22:48:06.392Z,22.93
2022-11-05T22:50:35.839Z,25.20
2022-11-05T22:53:04.782Z,21.90
2022-11-05T22:55:35.099Z,25.97
2022-11-05T22:58:28.113Z,25.60
2022-11-05T23:01:32.081Z,24.73
2022-11-05T23:04:30.355Z,22.00
2022-11-05T23:07:27.503Z,21.57
2022-11-05T23:10:13.931Z,21.73
2022-11-05T23:12:44.780Z,23.97
2022-11-05T23:15:35.853Z,22.00
2022-11-05T23:18:26.617Z,21.10
2022-11-05T23:21:23.386Z,19.70
2022-11-05T23:28:00.470Z,17.60
2022-11-05T23:30:29.980Z,17.30
2022-11-05T23:32:59.491Z,19.63
2022-11-05T23:35:43.640Z,18.60
2022-11-05T23:38:31.596Z,19.37
2022-11-05T23:41:21.610Z,18.97
2022-11-05T23:44:12.535Z,22.50
2022-11-05T23:47:08.523Z,18.17
2022-11-05T23:49:38.898Z,18.50
2022-11-05T23:52:07.799Z,19.67
2022-11-05T23:54:37.406Z,16.80
2022-11-05T23:57:31.902Z,22.87
